createdAt,value
2017-11-18T00:00:50.170Z,99.90
2017-11-18T00:03:19.527Z,99.90
2017-11-18T00:05:49.647Z,99.90
2017-11-18T00:08:18.914Z,99.90
2017-11-18T00:10:48.174Z,99.90
2017-11-18T00:13:17.428Z,99.90
2017-11-18T00:15:46.673Z,99.90
2017-11-18T00:18:15.939Z,99.90
2017-11-18T00:20:45.304Z,99.90
2017-11-18T00:23:14.561Z,99.90
2017-11-18T00:25:43.819Z,99.90
2017-11-18T00:28:13.147Z,99.90
2017-11-18T00:30:42.392Z,99.90
2017-11-18T00:33:11.669Z,99.90
2017-11-18T00:35:40.954Z,99.90
2017-11-18T00:38:10.359Z,99.90
2017-11-18T00:40:39.676Z,99.90
2017-11-18T00:43:09.707Z,99.90
2017-11-18T00:45:38.967Z,99.90
2017-11-18T00:48:08.219Z,99.90
2017-11-18T00:50:37.509Z,99.90
2017-11-18T00:53:07.518Z,99.90
2017-11-18T00:55:36.776Z,99.90
2017-11-18T00:58:06.006Z,99.90
2017-11-18T01:00:35.421Z,99.90
2017-11-18T01:03:04.726Z,99.90
2017-11-18T01:05:34.738Z,99.90
2017-11-18T01:08:04.170Z,99.90
2017-11-18T01:10:34.179Z,99.90
2017-11-18T01:13:03.574Z,99.90
2017-11-18T01:15:33.612Z,99.90
2017-11-18T01:18:02.878Z,99.90
2017-11-18T01:20:32.140Z,99.90
2017-11-18T01:23:01.383Z,99.90
2017-11-18T01:25:30.692Z,99.90
2017-11-18T01:28:00.015Z,99.90
2017-11-18T01:30:29.504Z,99.90
2017-11-18T01:32:59.584Z,99.90
2017-11-18T01:35:28.937Z,99.90
2017-11-18T01:37:58.183Z,99.90
2017-11-18T01:40:27.446Z,99.90
2017-11-18T01:42:56.711Z,99.90
2017-11-18T01:45:26.122Z,99.90
2017-11-18T01:47:56.147Z,99.90
2017-11-18T01:50:25.423Z,99.90
2017-11-18T01:52:54.859Z,99.90
2017-11-18T01:55:24.964Z,99.90
2017-11-18T01:57:54.346Z,99.90
2017-11-18T02:00:23.628Z,99.90
2017-11-18T02:02:53.900Z,99.90
2017-11-18T02:05:23.380Z,99.90
2017-11-18T02:07:52.667Z,99.90
2017-11-18T02:10:21.933Z,99.90
2017-11-18T02:12:51.211Z,99.90
2017-11-18T02:15:20.488Z,99.90
2017-11-18T02:17:49.757Z,99.90
2017-11-18T02:20:19.012Z,99.90
2017-11-18T02:22:49.060Z,99.90
2017-11-18T02:25:18.367Z,99.90
2017-11-18T02:27:47.659Z,99.90
2017-11-18T02:30:16.953Z,99.90
2017-11-18T02:32:46.341Z,99.90
2017-11-18T02:35:16.472Z,99.90
2017-11-18T02:37:46.520Z,99.90
2017-11-18T02:40:15.876Z,99.90
2017-11-18T02:42:45.879Z,99.90
2017-11-18T02:45:15.180Z,99.90
2017-11-18T02:47:44.453Z,99.90
2017-11-18T02:50:13.744Z,99.90
2017-11-18T02:52:43.031Z,99.90
2017-11-18T02:55:12.304Z,99.90
2017-11-18T02:57:41.761Z,99.90
2017-11-18T03:00:11.741Z,99.90
2017-11-18T03:02:41.765Z,99.90
2017-11-18T03:05:11.759Z,99.80
2017-11-18T03:07:41.015Z,99.80
2017-11-18T03:10:10.266Z,99.80
2017-11-18T03:12:39.560Z,99.80
2017-11-18T03:15:08.884Z,99.50
2017-11-18T03:17:38.899Z,99.10
2017-11-18T03:20:08.148Z,99.10
2017-11-18T03:22:37.388Z,99.30
2017-11-18T03:25:06.699Z,99.50
2017-11-18T03:27:36.707Z,99.80
2017-11-18T03:30:06.081Z,99.80
2017-11-18T03:32:35.343Z,99.70
2017-11-18T03:35:04.623Z,99.60
2017-11-18T03:37:33.862Z,99.60
2017-11-18T03:40:03.137Z,99.70
2017-11-18T03:42:33.233Z,99.90
2017-11-18T03:45:02.502Z,99.90
2017-11-18T03:47:31.762Z,99.90
2017-11-18T03:50:01.140Z,99.70
2017-11-18T03:52:31.168Z,99.30
2017-11-18T03:55:00.561Z,99.30
2017-11-18T03:57:29.823Z,98.90
2017-11-18T03:59:59.159Z,99.30
2017-11-18T04:02:28.417Z,99.30
2017-11-18T04:04:57.666Z,99.50
2017-11-18T04:07:26.951Z,99.70
2017-11-18T04:09:56.225Z,99.90
2017-11-18T04:12:25.687Z,99.90
2017-11-18T04:14:55.739Z,99.90
2017-11-18T04:17:25.206Z,99.90
2017-11-18T04:19:54.464Z,99.90
2017-11-18T04:22:23.716Z,99.90
2017-11-18T04:24:53.737Z,99.90
2017-11-18T04:27:22.966Z,99.90
2017-11-18T04:29:52.228Z,99.70
2017-11-18T04:32:21.611Z,99.80
2017-11-18T04:34:50.866Z,99.60
2017-11-18T04:37:20.127Z,99.60
2017-11-18T04:39:50.227Z,99.70
2017-11-18T04:42:19.464Z,99.70
2017-11-18T04:44:48.764Z,99.90
2017-11-18T04:47:18.028Z,99.90
2017-11-18T04:49:47.291Z,99.80
2017-11-18T04:52:16.592Z,99.80
2017-11-18T04:54:45.875Z,99.90
2017-11-18T04:57:15.088Z,99.60
2017-11-18T04:59:44.451Z,99.40
2017-11-18T05:02:14.479Z,99.60
2017-11-18T05:04:43.731Z,99.60
2017-11-18T05:07:12.994Z,99.70
2017-11-18T05:09:42.259Z,99.90
2017-11-18T05:12:11.499Z,99.80
2017-11-18T05:14:40.995Z,99.80
2017-11-18T05:17:11.834Z,99.80
2017-11-18T05:19:41.093Z,99.80
2017-11-18T05:22:10.583Z,99.90
2017-11-18T05:24:39.863Z,99.60
2017-11-18T05:27:09.096Z,99.60
2017-11-18T05:29:38.346Z,99.60
2017-11-18T05:32:07.829Z,99.70
2017-11-18T05:34:37.101Z,99.60
2017-11-18T05:37:06.342Z,99.50
2017-11-18T05:39:35.850Z,99.50
2017-11-18T05:42:06.167Z,99.60
2017-11-18T05:44:35.492Z,99.50
2017-11-18T05:47:04.765Z,99.70
2017-11-18T05:49:34.004Z,99.60
2017-11-18T05:52:03.343Z,99.40
2017-11-18T05:54:32.599Z,99.00
2017-11-18T05:57:01.855Z,99.50
2017-11-18T05:59:31.103Z,99.80
2017-11-18T06:02:00.471Z,99.80
2017-11-18T06:04:29.698Z,99.90
2017-11-18T06:06:58.943Z,99.90
2017-11-18T06:09:28.212Z,99.80
2017-11-18T06:11:57.454Z,99.60
2017-11-18T06:14:26.727Z,99.80
2017-11-18T06:16:56.043Z,99.90
2017-11-18T06:19:25.480Z,99.60
2017-11-18T06:21:55.076Z,99.50
2017-11-18T06:24:24.344Z,99.20
2017-11-18T06:26:53.604Z,99.40
2017-11-18T06:29:22.855Z,99.40
2017-11-18T06:31:52.107Z,99.40
2017-11-18T06:34:21.407Z,99.30
2017-11-18T06:36:50.710Z,99.40
2017-11-18T06:39:20.187Z,99.40
2017-11-18T06:41:49.435Z,99.50
2017-11-18T06:44:18.775Z,99.90
2017-11-18T06:46:48.830Z,99.90
2017-11-18T06:49:18.133Z,99.80
2017-11-18T06:51:47.343Z,99.90
2017-11-18T06:54:16.744Z,99.80
2017-11-18T06:56:45.950Z,99.70
2017-11-18T06:59:15.336Z,99.00
2017-11-18T07:01:44.579Z,99.10
2017-11-18T07:04:13.816Z,99.20
2017-11-18T07:06:43.113Z,99.10
2017-11-18T07:09:12.348Z,99.10
2017-11-18T07:11:41.611Z,99.20
2017-11-18T07:14:10.851Z,99.30
2017-11-18T07:16:40.167Z,99.40
2017-11-18T07:19:09.423Z,99.40
2017-11-18T07:21:39.462Z,99.30
2017-11-18T07:24:08.835Z,99.30
2017-11-18T07:26:38.152Z,99.30
2017-11-18T07:29:07.386Z,99.40
2017-11-18T07:31:36.652Z,99.10
2017-11-18T07:34:05.904Z,99.20
2017-11-18T07:36:35.183Z,99.30
2017-11-18T07:39:04.831Z,99.20
2017-11-18T07:41:34.155Z,99.10
2017-11-18T07:44:03.655Z,98.90
2017-11-18T07:46:33.176Z,98.80
2017-11-18T07:49:03.296Z,98.50
2017-11-18T07:51:34.053Z,98.30
2017-11-18T07:54:04.069Z,98.20
2017-11-18T07:56:33.320Z,98.20
2017-11-18T07:59:02.549Z,98.20
2017-11-18T08:01:32.665Z,97.00
2017-11-18T08:04:02.023Z,96.90
2017-11-18T08:06:31.362Z,96.40
2017-11-18T08:09:00.633Z,95.50
2017-11-18T08:11:29.905Z,94.90
2017-11-18T08:13:59.199Z,91.00
2017-11-18T08:16:28.492Z,87.00
2017-11-18T08:18:58.531Z,69.50
2017-11-18T08:21:27.903Z,69.40
2017-11-18T08:23:57.937Z,56.80
2017-11-18T08:26:27.338Z,56.70
2017-11-18T08:28:57.370Z,50.10
2017-11-18T08:31:26.656Z,50.10
2017-11-18T08:33:55.944Z,47.00
2017-11-18T08:36:36.938Z,45.80
2017-11-18T08:39:06.207Z,43.50
2017-11-18T08:41:35.467Z,42.90
2017-11-18T08:44:04.929Z,43.00
2017-11-18T08:46:34.321Z,42.20
2017-11-18T08:49:03.599Z,40.50
2017-11-18T08:51:32.865Z,41.00
2017-11-18T08:54:02.241Z,41.40
2017-11-18T08:56:31.492Z,40.30
2017-11-18T08:59:00.772Z,40.80
2017-11-18T09:01:30.872Z,47.30
2017-11-18T09:04:00.116Z,47.20
2017-11-18T09:06:29.401Z,51.60
2017-11-18T09:08:58.670Z,54.40
2017-11-18T09:11:28.223Z,54.50
2017-11-18T09:13:57.509Z,54.10
2017-11-18T09:16:26.766Z,53.80
2017-11-18T09:18:56.955Z,56.40
2017-11-18T09:21:26.244Z,59.10
2017-11-18T09:23:55.535Z,62.60
2017-11-18T09:26:25.627Z,66.60
2017-11-18T09:28:54.971Z,66.50
2017-11-18T09:31:24.259Z,66.10
2017-11-18T09:33:53.517Z,61.30
2017-11-18T09:36:22.918Z,56.40
2017-11-18T09:38:52.177Z,51.50
2017-11-18T09:41:21.466Z,46.90
2017-11-18T09:43:50.775Z,42.00
2017-11-18T09:46:20.055Z,40.10
2017-11-18T09:48:50.094Z,36.30
2017-11-18T09:51:19.347Z,36.30
2017-11-18T09:53:48.780Z,36.60
2017-11-18T09:56:18.810Z,35.70
2017-11-18T09:58:48.064Z,35.70
2017-11-18T10:01:17.494Z,36.40
2017-11-18T10:03:46.978Z,34.30
2017-11-18T10:06:16.251Z,35.20
2017-11-18T10:08:45.500Z,38.00
2017-11-18T10:11:14.899Z,39.60
2017-11-18T10:13:44.160Z,46.30
2017-11-18T10:16:13.457Z,52.60
2017-11-18T10:18:42.919Z,56.70
2017-11-18T10:21:12.189Z,57.90
2017-11-18T10:23:42.353Z,57.50
2017-11-18T10:26:12.695Z,54.40
2017-11-18T10:28:42.063Z,54.40
2017-11-18T10:31:11.339Z,51.00
2017-11-18T10:33:40.618Z,51.80
2017-11-18T10:36:10.000Z,50.20
2017-11-18T10:38:40.040Z,54.50
2017-11-18T10:41:09.310Z,54.50
2017-11-18T10:43:38.528Z,56.10
2017-11-18T10:46:07.785Z,58.40
2017-11-18T10:48:37.092Z,62.30
2017-11-18T10:51:07.111Z,65.50
2017-11-18T10:53:36.398Z,65.40
2017-11-18T10:56:05.644Z,66.90
2017-11-18T10:58:35.125Z,64.70
2017-11-18T11:01:05.192Z,65.40
2017-11-18T11:03:34.474Z,65.30
2017-11-18T11:06:03.712Z,62.80
2017-11-18T11:08:33.067Z,63.50
2017-11-18T11:11:02.968Z,65.10
2017-11-18T11:13:32.257Z,65.50
2017-11-18T11:16:01.615Z,64.70
2017-11-18T11:18:31.150Z,63.00
2017-11-18T11:21:00.447Z,63.50
2017-11-18T11:23:31.247Z,55.70
2017-11-18T11:26:00.570Z,55.10
2017-11-18T11:28:29.889Z,53.70
2017-11-18T11:31:00.029Z,49.30
2017-11-18T11:33:29.280Z,49.30
2017-11-18T11:35:58.608Z,50.60
2017-11-18T11:38:28.728Z,52.90
2017-11-18T11:40:57.968Z,54.60
2017-11-18T11:43:27.265Z,55.90
2017-11-18T11:45:56.517Z,59.50
2017-11-18T11:48:25.768Z,61.80
2017-11-18T11:50:55.248Z,63.00
2017-11-18T11:53:25.301Z,64.40
2017-11-18T11:55:54.532Z,64.30
2017-11-18T11:58:23.977Z,65.90
2017-11-18T12:00:53.975Z,67.60
2017-11-18T12:03:23.393Z,67.50
2017-11-18T12:05:53.559Z,70.00
2017-11-18T12:08:22.846Z,69.30
2017-11-18T12:10:52.106Z,69.30
2017-11-18T12:13:22.257Z,71.10
2017-11-18T12:15:51.533Z,71.10
2017-11-18T12:18:21.537Z,71.10
2017-11-18T12:20:52.321Z,71.50
2017-11-18T12:23:21.844Z,71.50
2017-11-18T12:25:51.322Z,73.10
2017-11-18T12:28:20.697Z,74.20
2017-11-18T12:30:49.956Z,74.70
2017-11-18T12:33:19.226Z,74.80
2017-11-18T12:35:48.462Z,74.80
2017-11-18T12:38:17.763Z,74.90
2017-11-18T12:40:47.644Z,75.20
2017-11-18T12:43:16.886Z,75.00
2017-11-18T12:45:46.865Z,76.10
2017-11-18T12:48:16.310Z,74.80
2017-11-18T12:50:45.571Z,75.10
2017-11-18T12:53:14.847Z,75.10
2017-11-18T12:55:44.844Z,76.40
2017-11-18T12:58:14.071Z,76.40
2017-11-18T13:00:43.341Z,74.60
2017-11-18T13:03:12.600Z,73.80
2017-11-18T13:05:41.860Z,74.30
2017-11-18T13:08:11.089Z,73.80
2017-11-18T13:10:40.676Z,74.90
2017-11-18T13:13:10.092Z,74.80
2017-11-18T13:15:40.198Z,75.00
2017-11-18T13:18:10.244Z,74.70
2017-11-18T13:20:40.161Z,74.60
2017-11-18T13:23:09.419Z,73.00
2017-11-18T13:25:38.806Z,73.40
2017-11-18T13:28:08.112Z,73.30
2017-11-18T13:30:37.972Z,73.30
2017-11-18T13:33:07.268Z,73.70
2017-11-18T13:35:36.479Z,74.60
2017-11-18T13:38:05.735Z,73.80
2017-11-18T13:40:35.000Z,74.90
2017-11-18T13:43:04.308Z,75.90
2017-11-18T13:45:33.572Z,74.50
2017-11-18T13:48:02.875Z,75.80
2017-11-18T13:50:32.157Z,75.70
2017-11-18T13:53:01.450Z,75.40
2017-11-18T13:55:32.189Z,76.40
2017-11-18T13:58:01.507Z,76.40
2017-11-18T14:00:34.279Z,76.60
2017-11-18T14:03:03.694Z,77.00
2017-11-18T14:05:33.691Z,77.40
2017-11-18T14:08:02.996Z,77.40
2017-11-18T14:10:32.242Z,77.50
2017-11-18T14:13:01.480Z,78.10
2017-11-18T14:15:30.732Z,77.80
2017-11-18T14:17:59.977Z,77.60
2017-11-18T14:20:29.244Z,77.50
2017-11-18T14:22:58.488Z,77.10
2017-11-18T14:25:27.758Z,78.10
2017-11-18T14:27:57.022Z,77.20
2017-11-18T14:30:26.264Z,78.60
2017-11-18T14:32:55.679Z,78.80
2017-11-18T14:35:24.928Z,78.50
2017-11-18T14:37:54.310Z,80.00
2017-11-18T14:40:23.711Z,80.10
2017-11-18T14:42:53.035Z,79.60
2017-11-18T14:45:22.265Z,80.20
2017-11-18T14:47:51.826Z,79.60
2017-11-18T14:50:21.121Z,79.90
2017-11-18T14:52:50.546Z,79.80
2017-11-18T14:55:20.555Z,80.60
2017-11-18T14:57:49.832Z,80.60
2017-11-18T15:00:19.068Z,80.50
2017-11-18T15:02:48.459Z,80.80
2017-11-18T15:05:17.750Z,80.50
2017-11-18T15:07:47.348Z,80.70
2017-11-18T15:10:16.594Z,80.20
2017-11-18T15:12:45.856Z,80.80
2017-11-18T15:15:23.593Z,80.80
2017-11-18T15:21:01.051Z,81.70
2017-11-18T15:26:45.309Z,81.90
2017-11-18T15:29:19.921Z,81.50
2017-11-18T15:31:54.646Z,82.10
2017-11-18T15:37:32.787Z,81.50
2017-11-18T15:40:02.125Z,80.90
2017-11-18T15:42:31.371Z,81.20
2017-11-18T15:45:10.567Z,81.60
2017-11-18T15:47:46.244Z,81.70
2017-11-18T15:50:17.757Z,81.70
2017-11-18T15:56:09.205Z,82.00
2017-11-18T15:58:40.828Z,81.80
2017-11-18T16:01:15.491Z,80.80
2017-11-18T16:03:49.269Z,81.10
2017-11-18T16:06:20.685Z,81.10
2017-11-18T16:08:49.939Z,80.70
2017-11-18T16:11:19.368Z,80.90
2017-11-18T16:13:49.376Z,82.00
2017-11-18T16:16:18.647Z,82.00
2017-11-18T16:18:47.885Z,82.60
2017-11-18T16:21:17.143Z,82.80
2017-11-18T16:23:46.466Z,83.10
2017-11-18T16:26:15.682Z,83.80
2017-11-18T16:28:44.943Z,85.80
2017-11-18T16:31:15.815Z,84.40
2017-11-18T16:33:45.840Z,85.00
2017-11-18T16:36:15.229Z,85.00
2017-11-18T16:38:45.282Z,85.30
2017-11-18T16:41:14.524Z,85.20
2017-11-18T16:43:43.961Z,85.50
2017-11-18T16:46:13.254Z,85.80
2017-11-18T16:48:43.315Z,87.00
2017-11-18T16:51:12.544Z,86.80
2017-11-18T16:53:41.812Z,86.70
2017-11-18T16:56:11.306Z,86.20
2017-11-18T16:58:40.548Z,85.50
2017-11-18T17:01:09.910Z,85.60
2017-11-18T17:03:39.909Z,86.20
2017-11-18T17:06:09.144Z,86.20
2017-11-18T17:08:38.633Z,85.50
2017-11-18T17:11:07.920Z,85.60
2017-11-18T17:13:38.053Z,85.40
2017-11-18T17:16:07.917Z,85.40
2017-11-18T17:18:37.256Z,85.50
2017-11-18T17:21:07.489Z,84.20
2017-11-18T17:23:38.560Z,85.70
2017-11-18T17:26:08.155Z,85.70
2017-11-18T17:28:37.363Z,85.30
2017-11-18T17:31:06.720Z,85.20
2017-11-18T17:33:36.049Z,85.20
2017-11-18T17:36:05.298Z,84.70
2017-11-18T17:38:34.664Z,85.00
2017-11-18T17:41:03.935Z,85.00
2017-11-18T17:43:34.008Z,85.00
2017-11-18T17:46:03.255Z,85.40
2017-11-18T17:48:33.298Z,85.10
2017-11-18T17:51:02.526Z,85.00
2017-11-18T17:53:31.790Z,84.70
2017-11-18T17:56:01.800Z,84.70
2017-11-18T17:58:33.044Z,84.70
2017-11-18T18:01:03.056Z,85.50
2017-11-18T18:03:32.295Z,85.50
2017-11-18T18:06:01.539Z,85.20
2017-11-18T18:08:30.980Z,86.10
2017-11-18T18:11:00.181Z,86.20
2017-11-18T18:13:29.673Z,85.40
2017-11-18T18:15:58.913Z,85.20
2017-11-18T18:18:28.227Z,84.80
2017-11-18T18:20:57.486Z,85.40
2017-11-18T18:23:26.761Z,85.90
2017-11-18T18:25:56.112Z,86.60
2017-11-18T18:28:25.323Z,87.90
2017-11-18T18:30:54.558Z,87.50
2017-11-18T18:33:23.970Z,87.50
2017-11-18T18:35:53.254Z,87.70
2017-11-18T18:38:23.302Z,89.10
2017-11-18T18:40:52.682Z,89.80
2017-11-18T18:43:21.961Z,89.00
2017-11-18T18:45:51.330Z,90.30
2017-11-18T18:48:21.096Z,91.10
2017-11-18T18:50:50.315Z,90.90
2017-11-18T18:53:19.623Z,91.30
2017-11-18T18:55:48.901Z,92.20
2017-11-18T18:58:18.134Z,92.50
2017-11-18T19:00:47.440Z,92.80
2017-11-18T19:03:16.912Z,93.40
2017-11-18T19:05:46.143Z,93.50
2017-11-18T19:08:15.393Z,93.60
2017-11-18T19:10:44.724Z,94.50
2017-11-18T19:13:13.920Z,94.40
2017-11-18T19:15:44.016Z,94.90
2017-11-18T19:18:13.267Z,95.00
2017-11-18T19:20:42.537Z,95.40
2017-11-18T19:23:11.928Z,95.70
2017-11-18T19:25:42.632Z,95.70
2017-11-18T19:28:11.997Z,95.40
2017-11-18T19:30:41.211Z,95.70
2017-11-18T19:33:10.568Z,95.90
2017-11-18T19:35:39.861Z,95.80
2017-11-18T19:38:10.008Z,95.80
2017-11-18T19:40:39.991Z,96.30
2017-11-18T19:43:11.063Z,96.40
2017-11-18T19:45:40.348Z,96.40
2017-11-18T19:48:09.585Z,96.50
2017-11-18T19:50:38.954Z,96.90
2017-11-18T19:53:08.993Z,93.60
2017-11-18T19:55:38.395Z,93.60
2017-11-18T19:58:08.375Z,95.60
2017-11-18T20:00:37.717Z,95.60
2017-11-18T20:03:06.924Z,96.10
2017-11-18T20:05:36.181Z,96.40
2017-11-18T20:08:05.450Z,95.70
2017-11-18T20:10:34.722Z,95.10
2017-11-18T20:13:04.056Z,95.70
2017-11-18T20:15:33.369Z,95.30
2017-11-18T20:18:02.619Z,96.20
2017-11-18T20:20:31.839Z,95.80
2017-11-18T20:23:01.229Z,95.60
2017-11-18T20:25:30.421Z,95.90
2017-11-18T20:28:00.417Z,96.20
2017-11-18T20:30:29.822Z,96.30
2017-11-18T20:32:59.122Z,96.50
2017-11-18T20:35:28.366Z,96.50
2017-11-18T20:37:57.851Z,96.50
2017-11-18T20:40:27.153Z,96.60
2017-11-18T20:42:56.370Z,96.70
2017-11-18T20:45:25.655Z,96.70
2017-11-18T20:47:54.919Z,96.80
2017-11-18T20:50:24.236Z,96.70
2017-11-18T20:52:53.464Z,96.80
2017-11-18T20:55:22.745Z,96.80
2017-11-18T20:57:51.991Z,96.80
2017-11-18T21:00:21.244Z,96.90
2017-11-18T21:02:51.244Z,96.60
2017-11-18T21:05:20.512Z,96.60
2017-11-18T21:07:49.789Z,96.90
2017-11-18T21:10:19.012Z,96.70
2017-11-18T21:12:48.287Z,96.90
2017-11-18T21:15:17.531Z,96.70
2017-11-18T21:17:46.800Z,96.30
2017-11-18T21:20:16.039Z,96.30
2017-11-18T21:22:45.377Z,95.60
2017-11-18T21:25:15.572Z,95.50
2017-11-18T21:27:45.013Z,95.40
2017-11-18T21:30:15.007Z,94.60
2017-11-18T21:32:44.249Z,94.60
2017-11-18T21:35:13.583Z,94.30
2017-11-18T21:37:43.033Z,94.30
2017-11-18T21:40:12.296Z,94.10
2017-11-18T21:42:41.745Z,94.30
2017-11-18T21:45:11.743Z,94.20
2017-11-18T21:47:41.004Z,94.20
2017-11-18T21:50:10.279Z,94.40
2017-11-18T21:52:40.262Z,93.60
2017-11-18T21:55:09.507Z,93.60
2017-11-18T21:57:38.995Z,93.60
2017-11-18T22:00:09.053Z,93.70
2017-11-18T22:02:38.344Z,93.70
2017-11-18T22:05:07.587Z,93.70
2017-11-18T22:07:36.872Z,94.20
2017-11-18T22:10:06.095Z,94.00
2017-11-18T22:12:36.135Z,94.40
2017-11-18T22:15:05.484Z,94.40
2017-11-18T22:17:34.711Z,94.70
2017-11-18T22:20:03.974Z,95.00
2017-11-18T22:22:33.263Z,95.70
2017-11-18T22:25:03.150Z,96.30
2017-11-18T22:27:32.431Z,96.60
2017-11-18T22:30:01.946Z,97.00
2017-11-18T22:32:31.969Z,97.80
2017-11-18T22:35:02.085Z,98.00
2017-11-18T22:37:32.088Z,98.10
2017-11-18T22:40:01.352Z,98.10
2017-11-18T22:42:30.797Z,98.30
2017-11-18T22:45:00.055Z,98.60
2017-11-18T22:47:29.367Z,98.50
2017-11-18T22:49:58.615Z,98.70
2017-11-18T22:52:27.871Z,98.70
2017-11-18T22:54:57.302Z,99.00
2017-11-18T22:57:26.611Z,99.20
2017-11-18T22:59:56.035Z,99.40
2017-11-18T23:02:25.287Z,99.40
2017-11-18T23:04:54.536Z,99.10
2017-11-18T23:07:23.819Z,99.50
2017-11-18T23:09:53.880Z,98.90
2017-11-18T23:12:23.172Z,98.90
2017-11-18T23:14:52.423Z,99.00
2017-11-18T23:17:21.724Z,98.90
2017-11-18T23:19:51.124Z,99.20
2017-11-18T23:22:20.398Z,99.30
2017-11-18T23:24:49.698Z,99.20
2017-11-18T23:27:19.181Z,99.40
2017-11-18T23:29:48.428Z,99.40
2017-11-18T23:32:17.666Z,99.30
2017-11-18T23:34:46.964Z,99.40
2017-11-18T23:37:17.013Z,99.00
2017-11-18T23:39:46.372Z,99.00
2017-11-18T23:42:16.404Z,99.40
2017-11-18T23:44:45.670Z,99.40
2017-11-18T23:47:16.554Z,99.50
2017-11-18T23:49:45.775Z,99.50
2017-11-18T23:52:15.025Z,99.30
2017-11-18T23:54:44.276Z,99.50
2017-11-18T23:57:13.571Z,99.40
2017-11-18T23:59:43.427Z,99.50
